Avo Varela — CUCZ2 — position and weather

sailwx.info

Track history (hours):
 
Tides and Currents Weather Stations Pressure Air Temp Water Temp Dewpoint Dewpoint Depression Visibility Wind Speed Wind Dir Waves Ship Positions

Avo Varela

Last reported at 2017-Sep-21 21:27 UTC. Time now 2017-Sep-24 14:21 UTC.
Position N 39°16' W 009°24'.

Type: Fishing. MMSI: 263422760.

Date/timePositionNaut miles runAvg speedWind from/ knotsBaromVisibWave heightAir tempDewpointWater temp
2017-Sep-21 21:27N 39°16' W 009°24'4 8.7
2017-Sep-21 21:00N 39°12' W 009°26'3 6.6
2017-Sep-21 20:31N 39°09' W 009°28'1 1.0
2017-Sep-21 20:01N 39°10' W 009°28'0 0.6
2017-Sep-21 19:31N 39°10' W 009°28'0 0.6
2017-Sep-21 19:01N 39°10' W 009°28'2 3.7
2017-Sep-21 18:29N 39°09' W 009°26'2 3.4
2017-Sep-21 17:57N 39°11' W 009°25'4 8.8
2017-Sep-21 17:27N 39°15' W 009°24'2 0.1
2017-Sep-20 21:09N 39°17' W 009°24'2 9.6
2017-Sep-20 20:59N 39°16' W 009°25'5 9.5
2017-Sep-20 20:30N 39°11' W 009°26'5 9.3
2017-Sep-20 20:00N 39°07' W 009°28'0 0.9
2017-Sep-20 19:30N 39°06' W 009°28'0 0.6
2017-Sep-20 19:00N 39°07' W 009°28'2 4.1
2017-Sep-20 18:30N 39°07' W 009°26'0 0.9
2017-Sep-20 18:00N 39°08' W 009°25'0 0.0
2017-Sep-20 17:30N 39°08' W 009°25'1 2.9
2017-Sep-20 17:00N 39°09' W 009°24'4 7.3
2017-Sep-20 16:30N 39°10' W 009°28'4 8.9
2017-Sep-20 16:00N 39°13' W 009°33'4 7.0
2017-Sep-20 15:27N 39°16' W 009°36'10 0.5
2017-Sep-19 21:10N 39°14' W 009°23'2 9.1
2017-Sep-19 20:58N 39°12' W 009°24'4 9.0
2017-Sep-19 20:30N 39°08' W 009°26'0 0.3
2017-Sep-19 19:59N 39°08' W 009°26'0 0.8
2017-Sep-19 19:30N 39°08' W 009°26'0 0.6
2017-Sep-19 19:00N 39°09' W 009°25'4 7.5
2017-Sep-19 18:30N 39°12' W 009°24'4 0.2
2017-Sep-18 22:00N 39°17' W 009°24'5 9.6
2017-Sep-18 21:30N 39°12' W 009°26'5 9.6
2017-Sep-18 21:00N 39°07' W 009°27'5 9.5
2017-Sep-18 20:30N 39°03' W 009°29'2 4.6
2017-Sep-18 20:00N 39°00' W 009°29'0 0.3
2017-Sep-18 19:30N 39°00' W 009°29'0 0.5
2017-Sep-18 19:00N 39°01' W 009°29'1 1.1
2017-Sep-18 18:30N 39°00' W 009°29'0 0.6
2017-Sep-18 18:00N 39°00' W 009°29'3 5.9
2017-Sep-18 17:30N 38°58' W 009°28'1 1.3
2017-Sep-18 17:00N 38°57' W 009°28'0 0.5
2017-Sep-18 16:30N 38°57' W 009°28'1 2.4
2017-Sep-18 16:00N 38°58' W 009°28'2 3.4
2017-Sep-18 15:30N 38°57' W 009°26'4 8.6
2017-Sep-18 15:00N 39°01' W 009°27'5 9.7
2017-Sep-18 14:30N 39°06' W 009°26'5 9.1
2017-Sep-18 14:00N 39°10' W 009°24'5 8.7
2017-Sep-18 13:29N 39°15' W 009°23'  
2017-Sep-14 20:25N 39°15' W 009°23'2 2.5
2017-Sep-14 19:40N 39°13' W 009°23'0 0.2
2017-Sep-14 19:27N 39°13' W 009°23'6 0.4
2017-Sep-14 05:56N 39°18' W 009°28'4 9.0
2017-Sep-14 05:30N 39°17' W 009°33'8 0.9
2017-Sep-13 20:41N 39°17' W 009°23'3 9.7
2017-Sep-13 20:23N 39°14' W 009°23'0 0.7
2017-Sep-13 19:39N 39°13' W 009°23'1 0.8
2017-Sep-13 18:54N 39°14' W 009°23'1 0.5
2017-Sep-13 16:08N 39°12' W 009°23'1 8.3
2017-Sep-13 16:00N 39°11' W 009°23'3 2.9
2017-Sep-13 15:07N 39°09' W 009°23'0 0.2
2017-Sep-13 15:00N 39°09' W 009°23'0 0.3
2017-Sep-13 14:27N 39°09' W 009°23'4 6.2
2017-Sep-13 13:50N 39°13' W 009°22'1 0.0
2017-Sep-12 05:37N 39°12' W 009°22'0 0.0
2017-Sep-12 05:16N 39°12' W 009°22'1 3.3
2017-Sep-12 04:57N 39°13' W 009°22'  
Track history (hours):
 
Tides and Currents Weather Stations Pressure Air Temp Water Temp Dewpoint Dewpoint Depression Visibility Wind Speed Wind Dir Waves Ship Positions

Avo Varela

Last reported at 2017-Sep-21 21:27 UTC. Time now 2017-Sep-24 14:21 UTC.
Position N 39°16' W 009°24'.

Type: Fishing. MMSI: 263422760.

Date/timePositionNaut miles runAvg speedWind from/ knotsBaromVisibWave heightAir tempDewpointWater temp
2017-Sep-21 21:27N 39°16' W 009°24'4 8.7
2017-Sep-21 21:00N 39°12' W 009°26'3 6.6
2017-Sep-21 20:31N 39°09' W 009°28'1 1.0
2017-Sep-21 20:01N 39°10' W 009°28'0 0.6
2017-Sep-21 19:31N 39°10' W 009°28'0 0.6
2017-Sep-21 19:01N 39°10' W 009°28'2 3.7
2017-Sep-21 18:29N 39°09' W 009°26'2 3.4
2017-Sep-21 17:57N 39°11' W 009°25'4 8.8
2017-Sep-21 17:27N 39°15' W 009°24'2 0.1
2017-Sep-20 21:09N 39°17' W 009°24'2 9.6
2017-Sep-20 20:59N 39°16' W 009°25'5 9.5
2017-Sep-20 20:30N 39°11' W 009°26'5 9.3
2017-Sep-20 20:00N 39°07' W 009°28'0 0.9
2017-Sep-20 19:30N 39°06' W 009°28'0 0.6
2017-Sep-20 19:00N 39°07' W 009°28'2 4.1
2017-Sep-20 18:30N 39°07' W 009°26'0 0.9
2017-Sep-20 18:00N 39°08' W 009°25'0 0.0
2017-Sep-20 17:30N 39°08' W 009°25'1 2.9
2017-Sep-20 17:00N 39°09' W 009°24'4 7.3
2017-Sep-20 16:30N 39°10' W 009°28'4 8.9
2017-Sep-20 16:00N 39°13' W 009°33'4 7.0
2017-Sep-20 15:27N 39°16' W 009°36'10 0.5
2017-Sep-19 21:10N 39°14' W 009°23'2 9.1
2017-Sep-19 20:58N 39°12' W 009°24'4 9.0
2017-Sep-19 20:30N 39°08' W 009°26'0 0.3
2017-Sep-19 19:59N 39°08' W 009°26'0 0.8
2017-Sep-19 19:30N 39°08' W 009°26'0 0.6
2017-Sep-19 19:00N 39°09' W 009°25'4 7.5
2017-Sep-19 18:30N 39°12' W 009°24'4 0.2
2017-Sep-18 22:00N 39°17' W 009°24'5 9.6
2017-Sep-18 21:30N 39°12' W 009°26'5 9.6
2017-Sep-18 21:00N 39°07' W 009°27'5 9.5
2017-Sep-18 20:30N 39°03' W 009°29'2 4.6
2017-Sep-18 20:00N 39°00' W 009°29'0 0.3
2017-Sep-18 19:30N 39°00' W 009°29'0 0.5
2017-Sep-18 19:00N 39°01' W 009°29'1 1.1
2017-Sep-18 18:30N 39°00' W 009°29'0 0.6
2017-Sep-18 18:00N 39°00' W 009°29'3 5.9
2017-Sep-18 17:30N 38°58' W 009°28'1 1.3
2017-Sep-18 17:00N 38°57' W 009°28'0 0.5
2017-Sep-18 16:30N 38°57' W 009°28'1 2.4
2017-Sep-18 16:00N 38°58' W 009°28'2 3.4
2017-Sep-18 15:30N 38°57' W 009°26'4 8.6
2017-Sep-18 15:00N 39°01' W 009°27'5 9.7
2017-Sep-18 14:30N 39°06' W 009°26'5 9.1
2017-Sep-18 14:00N 39°10' W 009°24'5 8.7
2017-Sep-18 13:29N 39°15' W 009°23'  
2017-Sep-14 20:25N 39°15' W 009°23'2 2.5
2017-Sep-14 19:40N 39°13' W 009°23'0 0.2
2017-Sep-14 19:27N 39°13' W 009°23'6 0.4
2017-Sep-14 05:56N 39°18' W 009°28'4 9.0
2017-Sep-14 05:30N 39°17' W 009°33'8 0.9
2017-Sep-13 20:41N 39°17' W 009°23'3 9.7
2017-Sep-13 20:23N 39°14' W 009°23'0 0.7
2017-Sep-13 19:39N 39°13' W 009°23'1 0.8
2017-Sep-13 18:54N 39°14' W 009°23'1 0.5
2017-Sep-13 16:08N 39°12' W 009°23'1 8.3
2017-Sep-13 16:00N 39°11' W 009°23'3 2.9
2017-Sep-13 15:07N 39°09' W 009°23'0 0.2
2017-Sep-13 15:00N 39°09' W 009°23'0 0.3
2017-Sep-13 14:27N 39°09' W 009°23'4 6.2
2017-Sep-13 13:50N 39°13' W 009°22'1 0.0
2017-Sep-12 05:37N 39°12' W 009°22'0 0.0
2017-Sep-12 05:16N 39°12' W 009°22'1 3.3
2017-Sep-12 04:57N 39°13' W 009°22'  

Dump ship's entire track history